sensor_id;sensor_type;location;lat;lon;timestamp;pressure;altitude;pressure_sealevel;temperature;humidity
53960;BME280;39866;48.638;-2.020;2022-11-20T00:02:24;101213.09;;;12.44;64.02
53960;BME280;39866;48.638;-2.020;2022-11-20T00:04:49;101220.94;;;12.50;63.80
53960;BME280;39866;48.638;-2.020;2022-11-20T00:07:14;101221.59;;;12.57;64.06
53960;BME280;39866;48.638;-2.020;2022-11-20T00:09:40;101213.59;;;12.57;64.38
53960;BME280;39866;48.638;-2.020;2022-11-20T00:12:05;101213.59;;;12.57;64.63
53960;BME280;39866;48.638;-2.020;2022-11-20T00:14:31;101207.34;;;12.58;64.40
53960;BME280;39866;48.638;-2.020;2022-11-20T00:16:56;101207.53;;;12.52;64.22
53960;BME280;39866;48.638;-2.020;2022-11-20T00:19:21;101205.78;;;12.51;64.11
53960;BME280;39866;48.638;-2.020;2022-11-20T00:21:47;101204.13;;;12.47;63.67
53960;BME280;39866;48.638;-2.020;2022-11-20T00:24:12;101209.81;;;12.34;63.70
53960;BME280;39866;48.638;-2.020;2022-11-20T00:26:38;101204.75;;;12.25;64.22
53960;BME280;39866;48.638;-2.020;2022-11-20T00:29:03;101193.13;;;12.26;64.32
53960;BME280;39866;48.638;-2.020;2022-11-20T00:31:30;101205.63;;;12.26;64.31
53960;BME280;39866;48.638;-2.020;2022-11-20T00:33:56;101205.63;;;12.26;64.01
53960;BME280;39866;48.638;-2.020;2022-11-20T00:36:26;101196.63;;;12.28;64.50
53960;BME280;39866;48.638;-2.020;2022-11-20T00:38:53;101192.22;;;12.27;64.63
53960;BME280;39866;48.638;-2.020;2022-11-20T00:41:18;101190.69;;;12.19;64.82
53960;BME280;39866;48.638;-2.020;2022-11-20T00:43:44;101189.00;;;12.14;65.36
53960;BME280;39866;48.638;-2.020;2022-11-20T00:46:17;101182.81;;;12.14;65.69
53960;BME280;39866;48.638;-2.020;2022-11-20T00:48:43;101174.94;;;12.08;65.57
53960;BME280;39866;48.638;-2.020;2022-11-20T00:51:11;101170.47;;;12.10;65.78
53960;BME280;39866;48.638;-2.020;2022-11-20T00:53:36;101177.63;;;12.08;65.89
53960;BME280;39866;48.638;-2.020;2022-11-20T00:56:04;101177.53;;;12.11;66.02
53960;BME280;39866;48.638;-2.020;2022-11-20T00:58:32;101179.28;;;12.12;65.79
53960;BME280;39866;48.638;-2.020;2022-11-20T01:01:06;101176.75;;;12.07;65.97
53960;BME280;39866;48.638;-2.020;2022-11-20T01:03:33;101167.06;;;12.03;65.92
53960;BME280;39866;48.638;-2.020;2022-11-20T01:06:04;101166.06;;;12.09;65.93
53960;BME280;39866;48.638;-2.020;2022-11-20T01:08:34;101162.38;;;12.13;65.97
53960;BME280;39866;48.638;-2.020;2022-11-20T01:11:28;101165.06;;;12.11;66.64
53960;BME280;39866;48.638;-2.020;2022-11-20T01:13:55;101160.88;;;12.03;67.65
53960;BME280;39866;48.638;-2.020;2022-11-20T01:18:53;101152.25;;;11.93;68.50
53960;BME280;39866;48.638;-2.020;2022-11-20T01:21:33;101145.34;;;11.86;69.24
53960;BME280;39866;48.638;-2.020;2022-11-20T01:24:00;101147.84;;;11.92;69.77
53960;BME280;39866;48.638;-2.020;2022-11-20T01:26:28;101135.38;;;11.93;69.95
53960;BME280;39866;48.638;-2.020;2022-11-20T01:28:54;101134.50;;;11.92;70.18
53960;BME280;39866;48.638;-2.020;2022-11-20T01:31:22;101125.72;;;11.88;70.70
53960;BME280;39866;48.638;-2.020;2022-11-20T01:33:51;101113.25;;;11.87;70.65
53960;BME280;39866;48.638;-2.020;2022-11-20T01:36:18;101113.38;;;11.84;71.16
53960;BME280;39866;48.638;-2.020;2022-11-20T01:38:43;101103.31;;;11.94;71.14
53960;BME280;39866;48.638;-2.020;2022-11-20T01:41:10;101089.75;;;12.02;71.22
53960;BME280;39866;48.638;-2.020;2022-11-20T01:43:57;101093.41;;;11.98;71.30
53960;BME280;39866;48.638;-2.020;2022-11-20T01:46:22;101097.16;;;11.90;71.66
53960;BME280;39866;48.638;-2.020;2022-11-20T01:51:44;101073.09;;;11.94;71.90
53960;BME280;39866;48.638;-2.020;2022-11-20T01:54:27;101078.13;;;12.03;72.12
53960;BME280;39866;48.638;-2.020;2022-11-20T01:56:57;101069.47;;;11.96;72.14
53960;BME280;39866;48.638;-2.020;2022-11-20T01:59:23;101072.00;;;12.01;72.12
53960;BME280;39866;48.638;-2.020;2022-11-20T02:01:50;101057.66;;;12.03;72.05
53960;BME280;39866;48.638;-2.020;2022-11-20T02:04:16;101055.97;;;12.01;72.26
53960;BME280;39866;48.638;-2.020;2022-11-20T02:06:45;101048.88;;;12.00;72.54
53960;BME280;39866;48.638;-2.020;2022-11-20T02:09:13;101043.03;;;11.87;72.42
53960;BME280;39866;48.638;-2.020;2022-11-20T02:11:39;101038.53;;;11.89;72.99
53960;BME280;39866;48.638;-2.020;2022-11-20T02:14:04;101038.78;;;11.78;73.22
53960;BME280;39866;48.638;-2.020;2022-11-20T02:16:39;101028.31;;;11.72;73.61
53960;BME280;39866;48.638;-2.020;2022-11-20T02:19:09;101032.72;;;11.73;73.95
53960;BME280;39866;48.638;-2.020;2022-11-20T02:21:38;101042.75;;;11.65;73.99
53960;BME280;39866;48.638;-2.020;2022-11-20T02:24:08;101038.53;;;11.56;74.18
53960;BME280;39866;48.638;-2.020;2022-11-20T02:26:41;101031.28;;;11.61;74.45
53960;BME280;39866;48.638;-2.020;2022-11-20T02:29:07;101009.16;;;11.58;74.55
53960;BME280;39866;48.638;-2.020;2022-11-20T02:31:36;100996.56;;;11.63;74.53
53960;BME280;39866;48.638;-2.020;2022-11-20T02:34:01;100991.19;;;11.64;74.63
53960;BME280;39866;48.638;-2.020;2022-11-20T02:36:28;100980.47;;;11.66;74.81
53960;BME280;39866;48.638;-2.020;2022-11-20T02:38:55;100973.56;;;11.59;74.99
53960;BME280;39866;48.638;-2.020;2022-11-20T02:41:21;100971.91;;;11.55;75.41
53960;BME280;39866;48.638;-2.020;2022-11-20T02:43:47;100969.13;;;11.59;75.31
53960;BME280;39866;48.638;-2.020;2022-11-20T02:46:12;100955.91;;;11.55;75.40
53960;BME280;39866;48.638;-2.020;2022-11-20T02:48:37;100952.22;;;11.60;75.62
53960;BME280;39866;48.638;-2.020;2022-11-20T02:51:03;100943.19;;;11.64;75.62
53960;BME280;39866;48.638;-2.020;2022-11-20T02:53:28;100938.00;;;11.60;75.20
53960;BME280;39866;48.638;-2.020;2022-11-20T02:55:53;100934.22;;;11.67;75.74
53960;BME280;39866;48.638;-2.020;2022-11-20T02:58:19;100926.56;;;11.55;75.65
53960;BME280;39866;48.638;-2.020;2022-11-20T03:00:44;100927.41;;;11.57;75.43
53960;BME280;39866;48.638;-2.020;2022-11-20T03:03:09;100916.91;;;11.51;75.52
53960;BME280;39866;48.638;-2.020;2022-11-20T03:05:35;100925.69;;;11.56;75.66
53960;BME280;39866;48.638;-2.020;2022-11-20T03:08:00;100904.28;;;11.57;75.44
53960;BME280;39866;48.638;-2.020;2022-11-20T03:10:26;100903.56;;;11.52;75.62
53960;BME280;39866;48.638;-2.020;2022-11-20T03:12:54;100897.84;;;11.64;75.50
53960;BME280;39866;48.638;-2.020;2022-11-20T03:15:21;100893.38;;;11.65;75.50
53960;BME280;39866;48.638;-2.020;2022-11-20T03:17:46;100891.66;;;11.64;75.72
53960;BME280;39866;48.638;-2.020;2022-11-20T03:20:12;100875.66;;;11.64;75.85
53960;BME280;39866;48.638;-2.020;2022-11-20T03:22:37;100871.41;;;11.57;75.54
53960;BME280;39866;48.638;-2.020;2022-11-20T03:25:03;100869.69;;;11.56;75.56
53960;BME280;39866;48.638;-2.020;2022-11-20T03:27:32;100877.47;;;11.62;75.85
53960;BME280;39866;48.638;-2.020;2022-11-20T03:29:57;100872.06;;;11.65;75.86
53960;BME280;39866;48.638;-2.020;2022-11-20T03:32:23;100871.28;;;11.61;75.85
53960;BME280;39866;48.638;-2.020;2022-11-20T03:34:48;100858.91;;;11.59;75.52
53960;BME280;39866;48.638;-2.020;2022-11-20T03:37:13;100848.34;;;11.56;75.62
53960;BME280;39866;48.638;-2.020;2022-11-20T03:39:38;100854.50;;;11.58;75.60
53960;BME280;39866;48.638;-2.020;2022-11-20T03:42:04;100846.31;;;11.64;75.92
53960;BME280;39866;48.638;-2.020;2022-11-20T03:44:49;100849.75;;;11.68;75.77
53960;BME280;39866;48.638;-2.020;2022-11-20T03:47:14;100846.97;;;11.71;75.96
53960;BME280;39866;48.638;-2.020;2022-11-20T03:49:40;100846.97;;;11.71;75.85
53960;BME280;39866;48.638;-2.020;2022-11-20T03:52:05;100838.66;;;11.81;75.84
53960;BME280;39866;48.638;-2.020;2022-11-20T03:54:30;100838.72;;;11.78;75.78
53960;BME280;39866;48.638;-2.020;2022-11-20T03:56:56;100825.31;;;11.81;75.95
53960;BME280;39866;48.638;-2.020;2022-11-20T03:59:21;100831.41;;;11.86;75.86
53960;BME280;39866;48.638;-2.020;2022-11-20T04:01:46;100846.66;;;11.81;76.02
53960;BME280;39866;48.638;-2.020;2022-11-20T04:04:12;100852.84;;;11.82;75.91
53960;BME280;39866;48.638;-2.020;2022-11-20T04:06:37;100842.41;;;11.76;76.07
53960;BME280;39866;48.638;-2.020;2022-11-20T04:09:04;100860.13;;;11.77;76.43
53960;BME280;39866;48.638;-2.020;2022-11-20T04:11:31;100853.16;;;11.73;76.47
53960;BME280;39866;48.638;-2.020;2022-11-20T04:14:02;100854.72;;;11.80;76.46
53960;BME280;39866;48.638;-2.020;2022-11-20T04:16:33;100838.59;;;11.84;76.63
53960;BME280;39866;48.638;-2.020;2022-11-20T04:19:00;100853.72;;;11.84;77.17
53960;BME280;39866;48.638;-2.020;2022-11-20T04:21:26;100860.91;;;11.80;77.24
53960;BME280;39866;48.638;-2.020;2022-11-20T04:23:53;100843.06;;;11.84;77.43
53960;BME280;39866;48.638;-2.020;2022-11-20T04:26:19;100845.06;;;11.76;78.20
53960;BME280;39866;48.638;-2.020;2022-11-20T04:28:45;100863.50;;;11.83;77.84
53960;BME280;39866;48.638;-2.020;2022-11-20T04:31:16;100863.50;;;11.83;78.08
53960;BME280;39866;48.638;-2.020;2022-11-20T04:33:42;100874.06;;;11.88;78.26
53960;BME280;39866;48.638;-2.020;2022-11-20T04:36:11;100891.63;;;11.94;78.32
53960;BME280;39866;48.638;-2.020;2022-11-20T04:38:37;100898.69;;;11.96;78.11
53960;BME280;39866;48.638;-2.020;2022-11-20T04:41:04;100902.31;;;11.94;78.49
53960;BME280;39866;48.638;-2.020;2022-11-20T04:43:31;100902.00;;;12.03;78.60
53960;BME280;39866;48.638;-2.020;2022-11-20T04:45:57;100889.53;;;12.03;78.37
53960;BME280;39866;48.638;-2.020;2022-11-20T04:48:23;100884.06;;;12.08;78.57
53960;BME280;39866;48.638;-2.020;2022-11-20T04:50:49;100879.34;;;12.16;78.44
53960;BME280;39866;48.638;-2.020;2022-11-20T04:53:15;100874.31;;;12.07;78.61
53960;BME280;39866;48.638;-2.020;2022-11-20T04:55:40;100873.38;;;12.08;78.63
53960;BME280;39866;48.638;-2.020;2022-11-20T04:58:06;100868.16;;;12.05;78.62
53960;BME280;39866;48.638;-2.020;2022-11-20T05:00:32;100863.44;;;12.13;78.77
53960;BME280;39866;48.638;-2.020;2022-11-20T05:02:57;100865.25;;;12.12;78.99
53960;BME280;39866;48.638;-2.020;2022-11-20T05:05:23;100868.63;;;12.18;78.92
53960;BME280;39866;48.638;-2.020;2022-11-20T05:07:48;100870.53;;;12.14;79.10
53960;BME280;39866;48.638;-2.020;2022-11-20T05:10:13;100863.47;;;12.11;78.82
53960;BME280;39866;48.638;-2.020;2022-11-20T05:12:39;100871.22;;;12.19;78.92
53960;BME280;39866;48.638;-2.020;2022-11-20T05:15:04;100869.44;;;12.20;79.26
53960;BME280;39866;48.638;-2.020;2022-11-20T05:17:30;100869.34;;;12.23;79.18
53960;BME280;39866;48.638;-2.020;2022-11-20T05:19:55;100871.22;;;12.19;79.54
53960;BME280;39866;48.638;-2.020;2022-11-20T05:22:21;100856.00;;;12.23;79.31
53960;BME280;39866;48.638;-2.020;2022-11-20T05:24:46;100862.16;;;12.25;79.45
53960;BME280;39866;48.638;-2.020;2022-11-20T05:27:12;100847.91;;;12.24;79.28
53960;BME280;39866;48.638;-2.020;2022-11-20T05:29:37;100858.03;;;12.14;79.73
53960;BME280;39866;48.638;-2.020;2022-11-20T05:32:03;100869.50;;;12.18;79.42
53960;BME280;39866;48.638;-2.020;2022-11-20T05:34:28;100871.19;;;12.21;79.66
53960;BME280;39866;48.638;-2.020;2022-11-20T05:36:53;100864.84;;;12.25;79.71
53960;BME280;39866;48.638;-2.020;2022-11-20T05:39:19;100872.78;;;12.26;79.56
53960;BME280;39866;48.638;-2.020;2022-11-20T05:41:44;100871.94;;;12.24;79.77
53960;BME280;39866;48.638;-2.020;2022-11-20T05:44:10;100885.28;;;12.24;79.75
53960;BME280;39866;48.638;-2.020;2022-11-20T05:46:36;100887.16;;;12.22;79.84
53960;BME280;39866;48.638;-2.020;2022-11-20T05:49:01;100891.56;;;12.23;79.78
53960;BME280;39866;48.638;-2.020;2022-11-20T05:51:27;100885.25;;;12.26;80.09
53960;BME280;39866;48.638;-2.020;2022-11-20T05:53:52;100895.63;;;12.35;79.55
53960;BME280;39866;48.638;-2.020;2022-11-20T05:56:19;100901.75;;;12.38;79.95
53960;BME280;39866;48.638;-2.020;2022-11-20T05:58:45;100906.81;;;12.46;79.77
53960;BME280;39866;48.638;-2.020;2022-11-20T06:03:41;100923.91;;;12.40;79.53
53960;BME280;39866;48.638;-2.020;2022-11-20T06:06:09;100950.31;;;12.50;79.30
53960;BME280;39866;48.638;-2.020;2022-11-20T06:08:34;100947.81;;;12.45;79.61
53960;BME280;39866;48.638;-2.020;2022-11-20T06:11:08;100940.44;;;12.52;79.13
53960;BME280;39866;48.638;-2.020;2022-11-20T06:13:34;100941.22;;;12.55;79.21
53960;BME280;39866;48.638;-2.020;2022-11-20T06:16:00;100939.09;;;12.65;79.23
53960;BME280;39866;48.638;-2.020;2022-11-20T06:18:27;100952.25;;;12.71;79.05
53960;BME280;39866;48.638;-2.020;2022-11-20T06:21:00;100952.72;;;12.84;79.04
53960;BME280;39866;48.638;-2.020;2022-11-20T06:23:28;100938.22;;;12.91;78.78
53960;BME280;39866;48.638;-2.020;2022-11-20T06:25:53;100898.34;;;12.85;78.69
53960;BME280;39866;48.638;-2.020;2022-11-20T06:28:19;100918.81;;;12.86;76.21
53960;BME280;39866;48.638;-2.020;2022-11-20T06:30:44;100915.91;;;12.92;75.29
53960;BME280;39866;48.638;-2.020;2022-11-20T06:33:11;100904.13;;;12.98;76.25
53960;BME280;39866;48.638;-2.020;2022-11-20T06:35:36;100912.63;;;13.09;76.62
53960;BME280;39866;48.638;-2.020;2022-11-20T06:38:01;100910.66;;;13.14;76.89
53960;BME280;39866;48.638;-2.020;2022-11-20T06:40:26;100898.78;;;12.98;75.61
53960;BME280;39866;48.638;-2.020;2022-11-20T06:42:53;100890.63;;;13.02;75.55
53960;BME280;39866;48.638;-2.020;2022-11-20T06:45:20;100890.88;;;12.95;74.84
53960;BME280;39866;48.638;-2.020;2022-11-20T06:47:45;100895.41;;;12.93;74.01
53960;BME280;39866;48.638;-2.020;2022-11-20T06:50:10;100887.66;;;12.85;74.17
53960;BME280;39866;48.638;-2.020;2022-11-20T06:52:35;100904.72;;;12.81;73.17
53960;BME280;39866;48.638;-2.020;2022-11-20T06:55:01;100912.25;;;12.95;73.46
53960;BME280;39866;48.638;-2.020;2022-11-20T06:57:26;100907.78;;;12.95;72.99
53960;BME280;39866;48.638;-2.020;2022-11-20T06:59:51;100904.00;;;13.01;72.99
53960;BME280;39866;48.638;-2.020;2022-11-20T07:02:17;100896.94;;;13.00;72.52
53960;BME280;39866;48.638;-2.020;2022-11-20T07:04:42;100894.91;;;13.06;72.87
53960;BME280;39866;48.638;-2.020;2022-11-20T07:07:08;100900.31;;;13.05;72.12
53960;BME280;39866;48.638;-2.020;2022-11-20T07:09:33;100902.53;;;13.17;70.86
53960;BME280;39866;48.638;-2.020;2022-11-20T07:11:59;100894.69;;;13.12;71.38
53960;BME280;39866;48.638;-2.020;2022-11-20T07:14:24;100899.38;;;13.06;71.27
53960;BME280;39866;48.638;-2.020;2022-11-20T07:16:49;100898.31;;;13.10;71.65
53960;BME280;39866;48.638;-2.020;2022-11-20T07:19:15;100897.19;;;13.17;71.63
53960;BME280;39866;48.638;-2.020;2022-11-20T07:21:40;100904.09;;;13.24;71.74
53960;BME280;39866;48.638;-2.020;2022-11-20T07:24:06;100898.88;;;13.20;71.45
53960;BME280;39866;48.638;-2.020;2022-11-20T07:26:31;100903.22;;;13.24;71.73
53960;BME280;39866;48.638;-2.020;2022-11-20T07:28:56;100905.59;;;13.31;71.26
53960;BME280;39866;48.638;-2.020;2022-11-20T07:31:21;100903.53;;;13.40;70.38
53960;BME280;39866;48.638;-2.020;2022-11-20T07:33:47;100911.00;;;13.53;68.44
53960;BME280;39866;48.638;-2.020;2022-11-20T07:36:12;100907.41;;;13.54;69.35
53960;BME280;39866;48.638;-2.020;2022-11-20T07:38:37;100905.56;;;13.56;67.80
53960;BME280;39866;48.638;-2.020;2022-11-20T07:41:03;100913.41;;;13.61;67.64
53960;BME280;39866;48.638;-2.020;2022-11-20T07:43:29;100911.66;;;13.60;65.56
53960;BME280;39866;48.638;-2.020;2022-11-20T07:45:55;100918.63;;;13.64;64.99
53960;BME280;39866;48.638;-2.020;2022-11-20T07:48:21;100926.31;;;13.73;67.09
53960;BME280;39866;48.638;-2.020;2022-11-20T07:50:46;100919.91;;;13.77;67.12
53960;BME280;39866;48.638;-2.020;2022-11-20T07:53:12;100924.59;;;13.71;65.75
53960;BME280;39866;48.638;-2.020;2022-11-20T07:55:39;100949.16;;;13.82;64.81
53960;BME280;39866;48.638;-2.020;2022-11-20T07:58:04;100944.53;;;13.63;65.35
53960;BME280;39866;48.638;-2.020;2022-11-20T08:00:29;100951.31;;;13.72;66.48
53960;BME280;39866;48.638;-2.020;2022-11-20T08:02:55;100962.13;;;13.69;67.04
53960;BME280;39866;48.638;-2.020;2022-11-20T08:05:21;100967.97;;;13.80;67.46
53960;BME280;39866;48.638;-2.020;2022-11-20T08:07:47;100967.97;;;13.80;67.11
53960;BME280;39866;48.638;-2.020;2022-11-20T08:10:14;100969.69;;;13.81;67.10
53960;BME280;39866;48.638;-2.020;2022-11-20T08:12:45;100972.28;;;13.83;66.42
53960;BME280;39866;48.638;-2.020;2022-11-20T08:15:29;100966.63;;;13.92;65.22
53960;BME280;39866;48.638;-2.020;2022-11-20T08:18:06;100978.19;;;13.93;66.28
53960;BME280;39866;48.638;-2.020;2022-11-20T08:20:31;100980.31;;;13.83;65.41
53960;BME280;39866;48.638;-2.020;2022-11-20T08:23:01;100989.38;;;13.80;65.21
53960;BME280;39866;48.638;-2.020;2022-11-20T08:25:29;100978.41;;;13.86;63.78
53960;BME280;39866;48.638;-2.020;2022-11-20T08:27:57;100981.44;;;14.01;63.96
53960;BME280;39866;48.638;-2.020;2022-11-20T08:30:23;100996.56;;;14.02;64.55
53960;BME280;39866;48.638;-2.020;2022-11-20T08:32:48;100988.13;;;13.89;63.13
53960;BME280;39866;48.638;-2.020;2022-11-20T08:35:13;100994.25;;;13.93;64.49
53960;BME280;39866;48.638;-2.020;2022-11-20T08:37:39;100990.28;;;13.79;64.32
53960;BME280;39866;48.638;-2.020;2022-11-20T08:40:10;101001.88;;;13.80;65.36
53960;BME280;39866;48.638;-2.020;2022-11-20T08:42:36;101000.88;;;13.82;62.50
53960;BME280;39866;48.638;-2.020;2022-11-20T08:45:01;101001.16;;;13.75;63.03
53960;BME280;39866;48.638;-2.020;2022-11-20T08:47:27;101020.13;;;13.69;63.55
53960;BME280;39866;48.638;-2.020;2022-11-20T08:49:52;101013.31;;;13.60;64.02
53960;BME280;39866;48.638;-2.020;2022-11-20T08:52:17;101026.69;;;13.83;64.02
53960;BME280;39866;48.638;-2.020;2022-11-20T08:54:43;101022.34;;;13.81;64.49
53960;BME280;39866;48.638;-2.020;2022-11-20T08:57:08;101037.06;;;13.93;63.95
53960;BME280;39866;48.638;-2.020;2022-11-20T08:59:33;101052.31;;;14.14;64.60
53960;BME280;39866;48.638;-2.020;2022-11-20T09:01:58;101049.50;;;13.94;61.50
53960;BME280;39866;48.638;-2.020;2022-11-20T09:04:24;101053.66;;;14.02;61.82
53960;BME280;39866;48.638;-2.020;2022-11-20T09:06:49;101063.03;;;14.14;62.87
53960;BME280;39866;48.638;-2.020;2022-11-20T09:09:17;101077.75;;;14.02;61.51
53960;BME280;39866;48.638;-2.020;2022-11-20T09:11:43;101091.50;;;14.17;62.04
53960;BME280;39866;48.638;-2.020;2022-11-20T09:14:09;101086.56;;;14.28;62.55
53960;BME280;39866;48.638;-2.020;2022-11-20T09:16:34;101090.00;;;14.31;62.71
53960;BME280;39866;48.638;-2.020;2022-11-20T09:18:59;101093.22;;;14.18;63.05
53960;BME280;39866;48.638;-2.020;2022-11-20T09:21:25;101083.78;;;14.07;60.29
53960;BME280;39866;48.638;-2.020;2022-11-20T09:23:50;101088.00;;;14.15;60.73
53960;BME280;39866;48.638;-2.020;2022-11-20T09:26:15;101091.31;;;14.21;61.89
53960;BME280;39866;48.638;-2.020;2022-11-20T09:28:41;101098.19;;;14.05;62.31
53960;BME280;39866;48.638;-2.020;2022-11-20T09:31:08;101092.47;;;14.14;64.27
53960;BME280;39866;48.638;-2.020;2022-11-20T09:33:33;101100.63;;;14.11;63.34
53960;BME280;39866;48.638;-2.020;2022-11-20T09:35:59;101088.47;;;14.26;63.52
53960;BME280;39866;48.638;-2.020;2022-11-20T09:38:25;101097.44;;;14.25;63.58
53960;BME280;39866;48.638;-2.020;2022-11-20T09:43:58;101091.97;;;14.04;61.69
53960;BME280;39866;48.638;-2.020;2022-11-20T09:46:31;101101.91;;;14.01;62.03
53960;BME280;39866;48.638;-2.020;2022-11-20T09:51:57;101100.72;;;14.08;59.90
53960;BME280;39866;48.638;-2.020;2022-11-20T09:54:41;101117.56;;;14.35;61.96
53960;BME280;39866;48.638;-2.020;2022-11-20T09:57:17;101110.75;;;14.26;61.27
53960;BME280;39866;48.638;-2.020;2022-11-20T09:59:47;101116.22;;;14.23;62.06
53960;BME280;39866;48.638;-2.020;2022-11-20T10:02:58;101115.00;;;14.32;62.11
53960;BME280;39866;48.638;-2.020;2022-11-20T10:05:09;101127.34;;;14.36;59.46
53960;BME280;39866;48.638;-2.020;2022-11-20T10:07:41;101116.91;;;14.28;58.71
53960;BME280;39866;48.638;-2.020;2022-11-20T10:10:33;101115.34;;;14.23;59.30
53960;BME280;39866;48.638;-2.020;2022-11-20T10:16:00;101108.66;;;14.34;61.76
53960;BME280;39866;48.638;-2.020;2022-11-20T10:24:24;101136.81;;;14.45;61.44
53960;BME280;39866;48.638;-2.020;2022-11-20T10:30:00;101151.84;;;14.50;60.79
53960;BME280;39866;48.638;-2.020;2022-11-20T10:32:33;101130.94;;;14.35;60.28
53960;BME280;39866;48.638;-2.020;2022-11-20T10:35:06;101139.00;;;14.35;61.12
53960;BME280;39866;48.638;-2.020;2022-11-20T10:37:35;101139.28;;;14.27;60.36
53960;BME280;39866;48.638;-2.020;2022-11-20T10:43:07;101191.06;;;14.03;66.27
53960;BME280;39866;48.638;-2.020;2022-11-20T10:51:13;101181.47;;;13.71;69.69
53960;BME280;39866;48.638;-2.020;2022-11-20T10:56:46;101163.72;;;13.15;72.49
53960;BME280;39866;48.638;-2.020;2022-11-20T10:59:47;101190.84;;;13.03;71.29
53960;BME280;39866;48.638;-2.020;2022-11-20T11:02:22;101175.06;;;12.94;70.62
53960;BME280;39866;48.638;-2.020;2022-11-20T11:04:50;101166.41;;;12.87;70.64
53960;BME280;39866;48.638;-2.020;2022-11-20T11:09:48;101155.25;;;13.01;70.28
53960;BME280;39866;48.638;-2.020;2022-11-20T11:12:14;101155.78;;;13.12;69.93
53960;BME280;39866;48.638;-2.020;2022-11-20T11:14:56;101146.47;;;13.25;69.27
53960;BME280;39866;48.638;-2.020;2022-11-20T11:17:28;101162.19;;;13.34;68.70
53960;BME280;39866;48.638;-2.020;2022-11-20T11:20:17;101125.16;;;13.49;68.29
53960;BME280;39866;48.638;-2.020;2022-11-20T11:22:48;101117.69;;;13.58;68.30
53960;BME280;39866;48.638;-2.020;2022-11-20T11:25:25;101125.34;;;13.69;68.34
53960;BME280;39866;48.638;-2.020;2022-11-20T11:27:52;101123.44;;;13.73;67.64
53960;BME280;39866;48.638;-2.020;2022-11-20T11:30:19;101132.88;;;13.83;68.18
53960;BME280;39866;48.638;-2.020;2022-11-20T11:32:45;101119.22;;;13.91;68.07
53960;BME280;39866;48.638;-2.020;2022-11-20T11:35:23;101129.38;;;14.06;67.95
53960;BME280;39866;48.638;-2.020;2022-11-20T11:37:49;101154.41;;;14.05;67.20
53960;BME280;39866;48.638;-2.020;2022-11-20T11:40:17;101139.31;;;14.02;68.42
53960;BME280;39866;48.638;-2.020;2022-11-20T11:42:48;101146.75;;;13.69;70.93
53960;BME280;39866;48.638;-2.020;2022-11-20T11:45:16;101156.44;;;13.47;72.35
53960;BME280;39866;48.638;-2.020;2022-11-20T11:50:18;101169.34;;;13.34;74.16
53960;BME280;39866;48.638;-2.020;2022-11-20T11:53:14;101187.50;;;13.24;74.77
53960;BME280;39866;48.638;-2.020;2022-11-20T11:58:41;101168.31;;;13.10;74.23
53960;BME280;39866;48.638;-2.020;2022-11-20T12:01:31;101169.84;;;13.19;73.94
53960;BME280;39866;48.638;-2.020;2022-11-20T12:04:04;101168.91;;;13.20;73.69
53960;BME280;39866;48.638;-2.020;2022-11-20T12:06:34;101171.53;;;13.21;73.27
53960;BME280;39866;48.638;-2.020;2022-11-20T12:11:46;101168.78;;;13.24;71.92
53960;BME280;39866;48.638;-2.020;2022-11-20T12:14:34;101184.63;;;13.30;71.18
53960;BME280;39866;48.638;-2.020;2022-11-20T12:17:00;101172.47;;;13.47;69.69
53960;BME280;39866;48.638;-2.020;2022-11-20T12:19:29;101190.28;;;13.74;69.04
53960;BME280;39866;48.638;-2.020;2022-11-20T12:30:10;101187.72;;;14.21;67.85
53960;BME280;39866;48.638;-2.020;2022-11-20T12:32:41;101189.34;;;14.25;67.79
53960;BME280;39866;48.638;-2.020;2022-11-20T12:38:40;101185.28;;;14.38;66.88
53960;BME280;39866;48.638;-2.020;2022-11-20T12:41:20;101180.03;;;14.35;66.66
53960;BME280;39866;48.638;-2.020;2022-11-20T12:53:33;101181.03;;;14.58;65.33
53960;BME280;39866;48.638;-2.020;2022-11-20T13:01:56;101164.66;;;14.41;65.28
53960;BME280;39866;48.638;-2.020;2022-11-20T13:07:14;101190.63;;;13.90;70.42
53960;BME280;39866;48.638;-2.020;2022-11-20T13:09:48;101200.47;;;13.63;72.62
53960;BME280;39866;48.638;-2.020;2022-11-20T13:12:34;101194.97;;;13.41;73.07
53960;BME280;39866;48.638;-2.020;2022-11-20T13:20:19;101177.09;;;13.15;74.25
53960;BME280;39866;48.638;-2.020;2022-11-20T13:22:47;101190.63;;;13.09;73.91
53960;BME280;39866;48.638;-2.020;2022-11-20T13:27:56;101198.50;;;13.13;74.24
53960;BME280;39866;48.638;-2.020;2022-11-20T13:30:24;101194.81;;;13.18;74.17
53960;BME280;39866;48.638;-2.020;2022-11-20T13:32:52;101204.47;;;13.22;73.96
53960;BME280;39866;48.638;-2.020;2022-11-20T13:35:29;101216.69;;;13.32;73.86
53960;BME280;39866;48.638;-2.020;2022-11-20T13:38:02;101225.31;;;13.40;73.85
53960;BME280;39866;48.638;-2.020;2022-11-20T13:40:27;101205.50;;;13.46;73.30
53960;BME280;39866;48.638;-2.020;2022-11-20T13:43:02;101213.13;;;13.58;72.44
53960;BME280;39866;48.638;-2.020;2022-11-20T13:45:30;101205.81;;;13.63;71.05
53960;BME280;39866;48.638;-2.020;2022-11-20T13:48:01;101219.16;;;13.65;69.24
53960;BME280;39866;48.638;-2.020;2022-11-20T13:55:42;101211.22;;;14.13;64.60
53960;BME280;39866;48.638;-2.020;2022-11-20T14:01:16;101200.94;;;14.26;64.00
53960;BME280;39866;48.638;-2.020;2022-11-20T14:03:42;101215.69;;;14.37;64.65
53960;BME280;39866;48.638;-2.020;2022-11-20T14:06:26;101212.63;;;14.23;63.77
53960;BME280;39866;48.638;-2.020;2022-11-20T14:08:52;101218.75;;;14.27;62.18
53960;BME280;39866;48.638;-2.020;2022-11-20T14:14:21;101206.88;;;14.34;62.38
53960;BME280;39866;48.638;-2.020;2022-11-20T14:16:48;101200.59;;;14.35;63.05
53960;BME280;39866;48.638;-2.020;2022-11-20T14:22:30;101214.81;;;14.12;67.72
53960;BME280;39866;48.638;-2.020;2022-11-20T14:24:30;101201.25;;;13.92;67.43
53960;BME280;39866;48.638;-2.020;2022-11-20T14:26:55;101198.44;;;13.96;67.94